< Cyclone 198515 1985 Season Cyclone 198517 >
Cyclone 198516 (MARGOT)
General InformationTrack Information on Google MapsDetailed Wind InformationList of All Images || ResourceGoogle EarthGE AnimationAtom FeedGeoJSON
Detalied Best Track (Time Zone = UTC)
Year Month Day Hour Lat. Long. Pressure (hPa) Wind (kt) Class Image Chart
1985 4 10 03 -6.7 103.8 1005 20 2 Image --
1985 4 10 18 -6.9 103.9 1004 25 2 Image --
1985 4 11 00 -7.0 103.9 1002 25 2 Image --
1985 4 11 06 -7.2 103.5 1000 25 2 Image --
1985 4 11 12 -7.4 103.1 998 30 2 Image --
1985 4 11 18 -7.7 102.6 997 30 2 Image --
1985 4 12 00 -8.0 102.0 990 40 3 Image --
1985 4 12 06 -8.2 101.2 985 50 4 Image --
1985 4 12 12 -8.6 100.3 980 50 4 Image --
1985 4 12 18 -9.2 99.4 976 55 4 Image --
1985 4 13 00 -9.5 98.9 971 60 4 Image --
1985 4 13 06 -9.7 98.7 966 65 5 Image --
1985 4 13 12 -9.9 99.0 964 70 5 Image --
1985 4 13 18 -10.2 99.8 962 70 5 Image --
1985 4 14 00 -10.8 100.8 959 75 5 Image --
1985 4 14 06 -11.6 101.5 956 75 5 Image --
1985 4 14 12 -12.6 102.2 954 80 5 Image --
1985 4 14 18 -13.8 103.1 942 85 5 Image --
1985 4 15 00 -14.8 104.3 946 85 5 Image --
1985 4 15 06 -15.8 105.5 950 80 5 Image --
1985 4 15 12 -16.6 106.6 954 80 5 Image --
1985 4 15 18 -17.5 107.5 961 75 5 Image --
1985 4 16 00 -18.2 108.3 968 65 5 Image --
1985 4 16 06 -18.7 109.1 976 60 4 Image --
1985 4 16 12 -18.9 109.8 980 55 4 Image --
1985 4 16 18 -19.0 110.4 984 50 4 Image --
1985 4 17 00 -18.8 110.8 986 50 4 Image --
1985 4 17 06 -18.4 110.9 988 50 4 Image --
1985 4 17 12 -18.2 110.8 989 50 4 Image --
1985 4 17 18 -18.1 110.5 990 50 4 Image --
1985 4 18 00 -18.0 110.3 990 45 3 Image --
1985 4 18 06 -17.8 110.1 989 40 3 Image --
1985 4 18 12 -17.7 110.2 988 40 3 Image --
1985 4 18 18 -17.5 110.2 987 35 3 Image --
1985 4 19 00 -17.3 110.3 985 40 3 Image --
1985 4 19 06 -17.1 110.8 984 50 4 Image --
1985 4 19 12 -17.2 111.2 985 50 4 Image --
1985 4 19 18 -17.4 111.6 987 50 4 Image --
1985 4 20 00 -17.6 111.8 988 50 4 Image --
1985 4 20 06 -17.7 111.6 989 50 4 Image --
1985 4 20 12 -17.8 111.4 990 40 3 Image --
1985 4 20 18 -17.9 111.2 997 30 2 Image --
1985 4 21 00 -17.9 111.0 997 30 2 Image --
1985 4 21 06 -18.0 110.9 998 30 2 Image --
1985 4 21 12 -18.0 110.8 998 30 2 Image --
1985 4 21 18 -18.0 110.7 999 30 2 Image --
1985 4 22 00 -18.0 110.6 1000 25 2 Image --
1985 4 22 06 -17.9 110.5 1000 25 2 Image --
1985 4 22 12 -17.9 110.5 1001 25 2 Image --
1985 4 22 18 -17.9 110.4 1001 25 2 Image --
1985 4 23 00 -17.8 110.3 1002 25 2 Image --
1985 4 23 06 -18.1 110.2 1003 25 2 Image --
1985 4 23 12 -18.4 110.0 1003 25 2 Image --
1985 4 23 18 -18.6 109.7 1004 20 2 Image --
1985 4 24 00 -18.8 109.3 1005 20 2 Image --
1985 4 24 06 -19.0 108.9 1006 20 2 Image --
1985 4 24 12 -19.2 108.5 1007 20 2 Image --
1985 4 24 18 -19.3 107.7 1007 20 2 Image --
1985 4 25 00 -19.3 106.9 1008 20 2 Image --
< Cyclone 198515 1985 Season Cyclone 198517 >

Help